createdAt,value
2023-05-05T00:01:06.671Z,12.30
2023-05-05T00:03:38.081Z,14.70
2023-05-05T00:06:06.628Z,12.30
2023-05-05T00:08:34.768Z,23.00
2023-05-05T00:11:02.862Z,12.20
2023-05-05T00:13:31.427Z,13.60
2023-05-05T00:16:00.426Z,13.10
2023-05-05T00:18:29.615Z,14.90
2023-05-05T00:20:57.871Z,12.90
2023-05-05T00:23:25.952Z,11.10
2023-05-05T00:25:54.022Z,10.30
2023-05-05T00:28:22.321Z,12.60
2023-05-05T00:30:50.660Z,11.40
2023-05-05T00:33:18.814Z,10.90
2023-05-05T00:35:47.850Z,9.90
2023-05-05T00:38:16.198Z,10.80
2023-05-05T00:40:44.431Z,11.20
2023-05-05T00:43:13.191Z,10.70
2023-05-05T00:45:44.349Z,9.90
2023-05-05T00:48:12.848Z,11.80
2023-05-05T00:50:44.120Z,12.00
2023-05-05T00:53:12.514Z,10.20
2023-05-05T00:55:41.736Z,10.30
2023-05-05T00:58:11.389Z,12.40
2023-05-05T01:00:39.701Z,10.60
2023-05-05T01:03:08.289Z,10.70
2023-05-05T01:05:48.657Z,10.50
2023-05-05T01:08:52.359Z,11.50
2023-05-05T01:11:32.029Z,9.70
2023-05-05T01:14:26.090Z,9.70
2023-05-05T01:17:01.504Z,10.50
2023-05-05T01:19:53.663Z,9.40
2023-05-05T01:22:27.242Z,8.90
2023-05-05T01:25:22.790Z,9.00
2023-05-05T01:28:18.914Z,10.00
2023-05-05T01:30:52.813Z,10.10
2023-05-05T01:33:27.876Z,10.30
2023-05-05T01:36:03.331Z,7.40
2023-05-05T01:38:38.115Z,9.70
2023-05-05T01:41:15.636Z,8.30
2023-05-05T01:43:47.252Z,15.80
2023-05-05T01:46:18.127Z,24.20
2023-05-05T01:48:48.482Z,14.60
2023-05-05T01:51:19.242Z,13.20
2023-05-05T01:53:48.638Z,13.10
2023-05-05T01:56:18.265Z,14.10
2023-05-05T01:58:47.342Z,15.40
2023-05-05T02:03:47.513Z,19.90
2023-05-05T02:06:19.315Z,15.30
2023-05-05T02:08:49.686Z,18.60
2023-05-05T02:11:18.051Z,20.80
2023-05-05T02:13:47.638Z,15.20
2023-05-05T02:16:18.997Z,13.70
2023-05-05T02:18:48.654Z,14.90
2023-05-05T02:21:18.251Z,14.30
2023-05-05T02:23:52.172Z,13.50
2023-05-05T02:26:22.261Z,13.80
2023-05-05T02:29:19.196Z,12.50
2023-05-05T02:31:55.318Z,11.70
2023-05-05T02:34:27.613Z,13.40
2023-05-05T02:37:03.376Z,11.70
2023-05-05T02:39:51.681Z,14.40
2023-05-05T02:42:23.347Z,12.70
2023-05-05T02:44:53.952Z,11.60
2023-05-05T02:47:22.079Z,11.40
2023-05-05T02:49:51.887Z,10.90
2023-05-05T02:52:20.080Z,12.40
2023-05-05T02:54:48.744Z,12.30
2023-05-05T02:57:21.139Z,11.80
2023-05-05T03:00:23.262Z,12.90
2023-05-05T03:03:14.238Z,11.90
2023-05-05T03:06:08.474Z,13.20
2023-05-05T03:08:50.501Z,10.70
2023-05-05T03:11:28.068Z,16.10
2023-05-05T03:14:06.993Z,18.20
2023-05-05T03:16:37.089Z,17.10
2023-05-05T03:19:08.741Z,15.80
2023-05-05T03:21:37.725Z,18.90
2023-05-05T03:24:21.385Z,13.30
2023-05-05T03:26:56.244Z,16.40
2023-05-05T03:29:26.241Z,14.60
2023-05-05T03:31:54.813Z,17.10
2023-05-05T03:34:23.201Z,13.70
2023-05-05T03:36:51.336Z,16.00
2023-05-05T03:39:19.445Z,12.50
2023-05-05T03:41:48.020Z,13.50
2023-05-05T03:44:17.008Z,13.80
2023-05-05T03:46:45.024Z,16.00
2023-05-05T03:49:14.749Z,14.70
2023-05-05T03:51:43.479Z,24.70
2023-05-05T03:54:11.859Z,18.40
2023-05-05T03:56:40.227Z,13.90
2023-05-05T03:59:08.976Z,23.90
2023-05-05T04:01:37.195Z,33.20
2023-05-05T04:04:06.236Z,28.80
2023-05-05T04:06:34.480Z,21.90
2023-05-05T04:09:03.541Z,19.40
2023-05-05T04:11:31.642Z,22.30
2023-05-05T04:14:00.073Z,28.70
2023-05-05T04:18:57.693Z,17.40
2023-05-05T04:21:25.901Z,12.70
2023-05-05T04:23:53.995Z,17.60
2023-05-05T04:26:22.452Z,16.70
2023-05-05T04:28:51.328Z,32.00
2023-05-05T04:33:48.472Z,18.90
2023-05-05T04:36:16.745Z,19.00
2023-05-05T04:38:44.943Z,18.10
2023-05-05T04:41:13.194Z,17.10
2023-05-05T04:43:42.074Z,17.20
2023-05-05T04:46:10.250Z,15.30
2023-05-05T04:48:39.446Z,16.20
2023-05-05T04:51:10.497Z,17.20
2023-05-05T04:53:39.606Z,16.90
2023-05-05T04:56:07.904Z,15.20
2023-05-05T04:58:36.251Z,18.00
2023-05-05T05:01:04.705Z,17.20
2023-05-05T05:03:32.941Z,15.20
2023-05-05T05:06:01.106Z,16.20
2023-05-05T05:08:29.492Z,15.30
2023-05-05T05:10:59.411Z,15.00
2023-05-05T05:13:27.557Z,14.90
2023-05-05T05:15:55.798Z,14.50
2023-05-05T05:18:23.801Z,17.10
2023-05-05T05:20:52.706Z,18.70
2023-05-05T05:23:20.917Z,23.90
2023-05-05T05:25:49.658Z,22.30
2023-05-05T05:28:19.043Z,24.30
2023-05-05T05:30:52.526Z,18.90
2023-05-05T05:33:21.007Z,20.90
2023-05-05T05:35:49.578Z,23.60
2023-05-05T05:38:18.878Z,20.30
2023-05-05T05:40:47.159Z,17.50
2023-05-05T05:43:15.596Z,19.40
2023-05-05T05:45:43.703Z,15.10
2023-05-05T05:48:12.295Z,15.10
2023-05-05T05:50:40.650Z,15.40
2023-05-05T05:53:08.953Z,17.00
2023-05-05T05:55:37.150Z,20.90
2023-05-05T05:58:05.460Z,15.90
2023-05-05T06:00:33.570Z,16.60
2023-05-05T06:03:04.193Z,16.10
2023-05-05T06:05:34.518Z,16.30
2023-05-05T06:08:02.642Z,21.20
2023-05-05T06:10:31.205Z,16.40
2023-05-05T06:13:06.428Z,14.50
2023-05-05T06:15:35.628Z,13.50
2023-05-05T06:18:04.993Z,15.90
2023-05-05T06:20:33.673Z,15.80
2023-05-05T06:23:01.765Z,15.30
2023-05-05T06:25:31.859Z,12.90
2023-05-05T06:28:00.230Z,11.00
2023-05-05T06:30:28.485Z,13.10
2023-05-05T06:32:56.621Z,14.90
2023-05-05T06:35:24.961Z,12.40
2023-05-05T06:37:53.685Z,11.20
2023-05-05T06:42:49.853Z,12.20
2023-05-05T06:45:22.640Z,14.40
2023-05-05T06:50:19.882Z,12.00
2023-05-05T06:52:48.046Z,16.40
2023-05-05T06:55:17.155Z,16.70
2023-05-05T06:57:45.452Z,11.80
2023-05-05T07:00:15.120Z,10.00
2023-05-05T07:02:43.481Z,10.50
2023-05-05T07:05:11.923Z,11.30
2023-05-05T07:07:51.583Z,11.40
2023-05-05T07:10:20.144Z,9.20
2023-05-05T07:12:49.047Z,9.00
2023-05-05T07:15:27.315Z,8.00
2023-05-05T07:18:00.540Z,6.90
2023-05-05T07:20:28.964Z,5.70
2023-05-05T07:22:57.233Z,8.30
2023-05-05T07:25:25.318Z,7.60
2023-05-05T07:27:53.604Z,6.80
2023-05-05T07:32:50.198Z,5.90
2023-05-05T07:40:14.688Z,10.70
2023-05-05T07:47:40.746Z,8.30
2023-05-05T07:50:09.978Z,2.50
2023-05-05T07:52:48.452Z,3.80
2023-05-05T07:55:20.041Z,2.40
2023-05-05T07:57:49.815Z,3.50
2023-05-05T08:00:19.599Z,2.60
2023-05-05T08:02:48.221Z,3.30
2023-05-05T08:05:16.894Z,2.90
2023-05-05T08:07:45.329Z,4.80
2023-05-05T08:12:41.707Z,3.00
2023-05-05T08:15:10.853Z,4.40
2023-05-05T08:17:47.739Z,2.80
2023-05-05T08:20:17.093Z,4.90
2023-05-05T08:22:46.215Z,2.90
2023-05-05T08:25:14.492Z,4.50
2023-05-05T08:30:12.235Z,2.40
2023-05-05T08:32:40.780Z,2.50
2023-05-05T08:35:09.690Z,4.10
2023-05-05T08:37:38.329Z,3.70
2023-05-05T08:42:38.732Z,3.50
2023-05-05T08:45:09.929Z,2.90
2023-05-05T08:47:39.689Z,3.20
2023-05-05T08:50:11.052Z,2.90
2023-05-05T08:52:45.180Z,3.10
2023-05-05T08:55:27.480Z,3.00
2023-05-05T08:57:57.515Z,2.80
2023-05-05T09:00:27.429Z,2.40
2023-05-05T09:03:00.133Z,2.40
2023-05-05T09:05:28.867Z,2.20
2023-05-05T09:10:26.267Z,2.30
2023-05-05T09:12:54.579Z,2.10
2023-05-05T09:20:19.964Z,1.60
2023-05-05T09:22:48.635Z,3.10
2023-05-05T09:27:48.727Z,1.90
2023-05-05T09:30:23.392Z,2.20
2023-05-05T09:32:54.686Z,2.40
2023-05-05T09:35:23.714Z,2.70
2023-05-05T09:37:51.835Z,2.70
2023-05-05T09:40:22.025Z,4.00
2023-05-05T09:43:02.016Z,3.40
2023-05-05T09:45:30.282Z,3.20
2023-05-05T09:48:00.320Z,2.80
2023-05-05T09:50:31.084Z,4.60
2023-05-05T09:53:02.275Z,3.60
2023-05-05T09:55:33.830Z,2.50
2023-05-05T09:58:23.947Z,2.40
2023-05-05T10:00:53.387Z,4.00
2023-05-05T10:03:21.814Z,4.30
2023-05-05T10:05:54.456Z,3.50
2023-05-05T10:08:26.175Z,3.70
2023-05-05T10:10:57.006Z,5.10
2023-05-05T10:13:25.600Z,5.40
2023-05-05T10:15:56.856Z,2.60
2023-05-05T10:18:27.569Z,3.40
2023-05-05T10:21:01.389Z,3.00
2023-05-05T10:23:46.087Z,3.60
2023-05-05T10:26:15.758Z,3.50
2023-05-05T10:29:01.843Z,3.40
2023-05-05T10:31:41.374Z,4.60
2023-05-05T10:34:13.445Z,5.10
2023-05-05T10:36:41.972Z,2.90
2023-05-05T10:39:12.008Z,3.30
2023-05-05T10:41:41.150Z,4.70
2023-05-05T10:44:11.216Z,3.50
2023-05-05T10:46:40.931Z,4.20
2023-05-05T10:49:49.407Z,4.70
2023-05-05T10:52:37.489Z,3.80
2023-05-05T10:55:15.559Z,5.40
2023-05-05T10:57:47.688Z,3.60
2023-05-05T11:00:38.874Z,5.20
2023-05-05T11:03:26.627Z,6.90
2023-05-05T11:06:04.401Z,8.50
2023-05-05T11:08:43.321Z,7.00
2023-05-05T11:11:13.078Z,8.70
2023-05-05T11:13:42.138Z,4.40
2023-05-05T11:16:48.234Z,4.70
2023-05-05T11:19:45.440Z,12.70
2023-05-05T11:22:14.530Z,4.10
2023-05-05T11:24:42.809Z,6.50
2023-05-05T11:27:11.692Z,3.40
2023-05-05T11:30:04.686Z,3.90
2023-05-05T11:32:33.933Z,4.70
2023-05-05T11:35:03.077Z,5.20
2023-05-05T11:37:31.340Z,9.90
2023-05-05T11:39:59.510Z,4.90
2023-05-05T11:42:28.623Z,8.80
2023-05-05T11:44:56.868Z,3.80
2023-05-05T11:47:27.147Z,3.90
2023-05-05T11:49:56.216Z,6.70
2023-05-05T11:52:26.141Z,4.00
2023-05-05T11:55:01.711Z,7.10
2023-05-05T11:57:30.631Z,4.80
2023-05-05T12:00:05.428Z,4.80
2023-05-05T12:02:34.124Z,3.80
2023-05-05T12:05:03.168Z,4.80
2023-05-05T12:07:33.487Z,4.20
2023-05-05T12:10:02.923Z,5.10
2023-05-05T12:12:37.284Z,3.40
2023-05-05T12:15:06.750Z,3.90
2023-05-05T12:17:41.052Z,6.60
2023-05-05T12:20:11.160Z,5.10
2023-05-05T12:22:39.926Z,5.30
2023-05-05T12:25:09.115Z,4.50
2023-05-05T12:27:37.545Z,3.70
2023-05-05T12:30:18.750Z,5.40
2023-05-05T12:32:47.332Z,5.50
2023-05-05T12:35:16.221Z,3.80
2023-05-05T12:37:44.933Z,4.40
2023-05-05T12:40:45.350Z,6.10
2023-05-05T12:43:26.664Z,7.10
2023-05-05T12:46:00.829Z,6.60
2023-05-05T12:48:29.318Z,9.20
2023-05-05T12:51:18.812Z,7.60
2023-05-05T12:53:48.650Z,3.00
2023-05-05T12:56:49.480Z,6.50
2023-05-05T12:59:23.476Z,6.80
2023-05-05T13:01:56.350Z,4.80
2023-05-05T13:04:27.080Z,12.60
2023-05-05T13:07:15.412Z,3.80
2023-05-05T13:09:44.060Z,3.90
2023-05-05T13:12:12.540Z,5.70
2023-05-05T13:14:42.069Z,15.80
2023-05-05T13:17:11.658Z,3.20
2023-05-05T13:19:46.652Z,7.30
2023-05-05T13:22:14.922Z,12.80
2023-05-05T13:24:51.649Z,8.00
2023-05-05T13:27:21.009Z,5.00
2023-05-05T13:29:49.270Z,4.00
2023-05-05T13:32:17.398Z,3.00
2023-05-05T13:34:45.752Z,7.10
2023-05-05T13:37:14.409Z,4.50
2023-05-05T13:39:43.505Z,6.90
2023-05-05T13:42:11.788Z,8.30
2023-05-05T13:44:39.960Z,4.60
2023-05-05T13:47:08.815Z,3.70
2023-05-05T13:49:37.081Z,4.00
2023-05-05T13:52:06.113Z,5.50
2023-05-05T13:54:34.166Z,2.80
2023-05-05T13:57:03.404Z,3.20
2023-05-05T13:59:31.766Z,4.10
2023-05-05T14:02:01.062Z,3.80
2023-05-05T14:04:29.288Z,6.20
2023-05-05T14:06:58.572Z,3.30
2023-05-05T14:09:27.018Z,5.10
2023-05-05T14:11:55.338Z,3.10
2023-05-05T14:14:23.482Z,2.90
2023-05-05T14:16:51.664Z,3.20
2023-05-05T14:19:19.812Z,4.60
2023-05-05T14:21:47.871Z,5.30
2023-05-05T14:24:15.959Z,5.10
2023-05-05T14:26:44.226Z,2.80
2023-05-05T14:29:12.247Z,3.60
2023-05-05T14:31:40.874Z,4.40
2023-05-05T14:34:09.169Z,3.00
2023-05-05T14:36:37.440Z,3.60
2023-05-05T14:39:05.653Z,4.20
2023-05-05T14:41:33.924Z,3.40
2023-05-05T14:44:01.959Z,3.90
2023-05-05T14:46:31.480Z,5.90
2023-05-05T14:49:00.006Z,3.40
2023-05-05T14:51:28.326Z,9.10
2023-05-05T14:53:56.611Z,8.50
2023-05-05T14:56:28.371Z,3.40
2023-05-05T14:58:56.381Z,3.10
2023-05-05T15:01:27.663Z,4.20
2023-05-05T15:03:56.340Z,2.90
2023-05-05T15:06:24.516Z,3.20
2023-05-05T15:08:52.496Z,3.30
2023-05-05T15:11:20.587Z,3.20
2023-05-05T15:13:48.783Z,12.80
2023-05-05T15:16:17.191Z,4.50
2023-05-05T15:18:45.603Z,4.60
2023-05-05T15:21:13.884Z,2.70
2023-05-05T15:23:42.311Z,2.60
2023-05-05T15:26:10.416Z,3.30
2023-05-05T15:28:38.494Z,3.90
2023-05-05T15:31:06.801Z,4.90
2023-05-05T15:33:34.983Z,3.30
2023-05-05T15:36:03.328Z,3.50
2023-05-05T15:38:31.622Z,4.90
2023-05-05T15:41:00.204Z,3.60
2023-05-05T15:43:28.311Z,2.80
2023-05-05T15:45:56.396Z,2.70
2023-05-05T15:48:24.405Z,3.20
2023-05-05T15:50:52.445Z,2.80
2023-05-05T15:53:20.759Z,3.50
2023-05-05T15:55:48.805Z,3.90
2023-05-05T15:58:16.908Z,4.90
2023-05-05T16:00:45.157Z,5.40
2023-05-05T16:03:13.504Z,4.00
2023-05-05T16:05:41.861Z,3.00
2023-05-05T16:08:11.135Z,3.50
2023-05-05T16:10:39.485Z,3.30
2023-05-05T16:13:08.004Z,4.00
2023-05-05T16:15:36.521Z,3.20
2023-05-05T16:18:05.245Z,2.80
2023-05-05T16:20:33.410Z,3.00
2023-05-05T16:23:01.430Z,3.50
2023-05-05T16:25:29.444Z,3.20
2023-05-05T16:27:57.737Z,2.90
2023-05-05T16:30:26.151Z,3.40
2023-05-05T16:32:54.861Z,2.90
2023-05-05T16:37:52.618Z,3.80
2023-05-05T16:40:20.755Z,2.30
2023-05-05T16:42:49.126Z,3.10
2023-05-05T16:45:17.217Z,3.20
2023-05-05T16:47:45.659Z,3.40
2023-05-05T16:50:13.741Z,3.50
2023-05-05T16:52:42.238Z,2.80
2023-05-05T16:55:10.548Z,3.40
2023-05-05T16:57:39.513Z,2.90
2023-05-05T17:00:09.391Z,3.20
2023-05-05T17:02:37.745Z,6.00
2023-05-05T17:05:06.599Z,3.40
2023-05-05T17:07:34.766Z,3.80
2023-05-05T17:10:02.839Z,5.10
2023-05-05T17:12:31.235Z,2.90
2023-05-05T17:15:00.000Z,4.40
2023-05-05T17:17:28.469Z,3.70
2023-05-05T17:19:56.759Z,2.80
2023-05-05T17:22:24.900Z,3.10
2023-05-05T17:24:53.211Z,4.30
2023-05-05T17:27:21.314Z,4.40
2023-05-05T17:29:49.453Z,6.10
2023-05-05T17:32:17.730Z,4.50
2023-05-05T17:34:46.036Z,4.70
2023-05-05T17:37:14.234Z,3.60
2023-05-05T17:39:42.424Z,3.80
2023-05-05T17:42:11.041Z,2.80
2023-05-05T17:44:39.081Z,3.80
2023-05-05T17:47:07.996Z,4.40
2023-05-05T17:49:36.146Z,3.10
2023-05-05T17:52:04.670Z,4.10
2023-05-05T17:54:32.989Z,3.30
2023-05-05T17:57:01.559Z,4.20
2023-05-05T17:59:31.501Z,5.50
2023-05-05T18:01:59.780Z,4.50
2023-05-05T18:04:27.908Z,2.90
2023-05-05T18:06:57.543Z,6.00
2023-05-05T18:09:27.008Z,4.30
2023-05-05T18:11:55.593Z,8.20
2023-05-05T18:14:24.073Z,5.90
2023-05-05T18:16:53.118Z,8.80
2023-05-05T18:21:53.037Z,6.00
2023-05-05T18:24:21.258Z,8.80
2023-05-05T18:26:51.467Z,5.40
2023-05-05T18:29:24.663Z,8.60
2023-05-05T18:31:54.927Z,6.20
2023-05-05T18:34:23.366Z,8.10
2023-05-05T18:36:54.351Z,8.20
2023-05-05T18:39:22.888Z,6.20
2023-05-05T18:41:51.056Z,6.50
2023-05-05T18:44:20.260Z,4.80
2023-05-05T18:49:16.756Z,6.80
2023-05-05T18:51:45.120Z,9.30
2023-05-05T18:54:13.210Z,8.20
2023-05-05T18:56:42.413Z,12.80
2023-05-05T19:01:38.585Z,8.10
2023-05-05T19:04:15.565Z,15.50
2023-05-05T19:06:52.547Z,12.10
2023-05-05T19:09:20.950Z,16.20
2023-05-05T19:11:49.085Z,14.90
2023-05-05T19:14:18.080Z,10.30
2023-05-05T19:16:46.550Z,13.70
2023-05-05T19:19:14.739Z,18.40
2023-05-05T19:21:43.305Z,19.90
2023-05-05T19:24:11.831Z,16.70
2023-05-05T19:26:40.304Z,13.30
2023-05-05T19:29:08.673Z,21.90
2023-05-05T19:31:36.843Z,17.80
2023-05-05T19:34:05.341Z,21.40
2023-05-05T19:36:34.757Z,15.50
2023-05-05T19:39:04.602Z,20.70
2023-05-05T19:41:35.431Z,16.40
2023-05-05T19:44:04.179Z,21.10
2023-05-05T19:46:32.645Z,13.40
2023-05-05T19:49:01.434Z,17.30
2023-05-05T19:51:29.601Z,14.20
2023-05-05T19:53:59.614Z,13.40
2023-05-05T19:56:27.667Z,16.90
2023-05-05T19:58:59.000Z,21.40
2023-05-05T20:01:28.774Z,12.00
2023-05-05T20:03:57.518Z,15.20
2023-05-05T20:06:27.137Z,21.90
2023-05-05T20:08:55.793Z,18.50
2023-05-05T20:11:26.040Z,20.50
2023-05-05T20:13:54.306Z,22.80
2023-05-05T20:16:22.509Z,20.10
2023-05-05T20:18:51.694Z,15.40
2023-05-05T20:21:20.177Z,14.70
2023-05-05T20:23:48.557Z,21.90
2023-05-05T20:26:17.181Z,19.60
2023-05-05T20:28:45.959Z,21.40
2023-05-05T20:31:14.966Z,16.80
2023-05-05T20:33:43.294Z,14.20
2023-05-05T20:36:11.741Z,14.50
2023-05-05T20:38:39.947Z,17.30
2023-05-05T20:41:08.307Z,15.40
2023-05-05T20:43:37.444Z,16.10
2023-05-05T20:46:06.019Z,16.10
2023-05-05T20:48:34.045Z,16.00
2023-05-05T20:51:06.666Z,16.80
2023-05-05T20:53:35.366Z,15.50
2023-05-05T20:56:05.724Z,13.40
2023-05-05T20:58:34.561Z,13.90
2023-05-05T21:01:02.961Z,13.90
2023-05-05T21:03:31.225Z,14.10
2023-05-05T21:05:59.373Z,15.30
2023-05-05T21:08:27.542Z,19.90
2023-05-05T21:10:55.726Z,21.70
2023-05-05T21:13:24.354Z,20.40
2023-05-05T21:15:52.474Z,20.10
2023-05-05T21:18:20.948Z,23.20
2023-05-05T21:20:49.332Z,24.40
2023-05-05T21:23:17.408Z,32.20
2023-05-05T21:25:45.663Z,22.10
2023-05-05T21:28:13.949Z,31.00
2023-05-05T21:30:42.343Z,19.30
2023-05-05T21:33:10.467Z,19.90
2023-05-05T21:35:38.886Z,21.40
2023-05-05T21:38:07.160Z,21.80
2023-05-05T21:40:35.222Z,19.00
2023-05-05T21:43:03.268Z,22.80
2023-05-05T21:45:31.377Z,28.70
2023-05-05T21:47:59.607Z,25.60
2023-05-05T21:50:29.531Z,28.50
2023-05-05T21:52:57.815Z,23.40
2023-05-05T21:55:26.008Z,23.30
2023-05-05T21:57:54.383Z,19.60
2023-05-05T22:00:22.808Z,23.00
2023-05-05T22:02:51.211Z,18.70
2023-05-05T22:05:19.534Z,15.70
2023-05-05T22:07:47.768Z,15.30
2023-05-05T22:10:16.717Z,14.90
2023-05-05T22:12:44.929Z,15.60
2023-05-05T22:15:13.075Z,15.80
2023-05-05T22:17:41.234Z,15.40
2023-05-05T22:20:10.300Z,16.50
2023-05-05T22:22:38.949Z,15.50
2023-05-05T22:25:07.905Z,16.10
2023-05-05T22:30:04.948Z,14.90
2023-05-05T22:32:33.163Z,17.20
2023-05-05T22:35:01.493Z,17.20
2023-05-05T22:37:29.641Z,16.50
2023-05-05T22:39:57.651Z,14.70
2023-05-05T22:42:25.902Z,14.90
2023-05-05T22:44:54.483Z,15.90
2023-05-05T22:47:22.583Z,16.60
2023-05-05T22:49:51.046Z,15.70
2023-05-05T22:52:19.109Z,16.10
2023-05-05T22:54:47.259Z,17.00
2023-05-05T22:57:15.330Z,16.20
2023-05-05T22:59:43.797Z,15.50
2023-05-05T23:02:12.319Z,15.60
2023-05-05T23:04:40.725Z,17.50
2023-05-05T23:07:09.041Z,19.30
2023-05-05T23:09:37.076Z,16.90
2023-05-05T23:12:05.514Z,17.30
2023-05-05T23:14:33.868Z,16.30
2023-05-05T23:17:02.012Z,13.80
2023-05-05T23:19:32.502Z,21.90
2023-05-05T23:22:01.997Z,15.20
2023-05-05T23:24:31.020Z,20.40
2023-05-05T23:29:30.614Z,21.80
2023-05-05T23:31:59.061Z,21.50
2023-05-05T23:34:27.471Z,22.90
2023-05-05T23:36:56.050Z,21.40
2023-05-05T23:39:24.338Z,19.40
2023-05-05T23:41:53.035Z,16.90
2023-05-05T23:44:21.389Z,17.80
2023-05-05T23:46:49.681Z,17.10
2023-05-05T23:49:17.707Z,14.90
2023-05-05T23:51:46.135Z,18.20
2023-05-05T23:54:14.475Z,15.30
2023-05-05T23:56:42.828Z,16.60
2023-05-05T23:59:10.937Z,16.20
